Latest Weather Observations for Coolangatta

IDQ60901

Issued at 11:01 pm EST Saturday 16 December 2017 (issued every 10 minutes, with the page automatically refreshed every 10 minutes)

About weather observations | Map of Brisbane area stations | Latest observations for Brisbane area | Other Formats
Station Details ID: 040717 Name: COOLANGATTA Lat: -28.17 Lon: 153.51 Height: 4.0 m
Data from the previous 72 hours. | See also: Recent months at Coolangatta
Date/Time
EST
Temp
°C
App
Temp
°C
Dew
Point
°C
Rel
Hum
%
Delta-T
°C
Wind Press
QNH
hPa
Press
MSL
hPa
Rain since
9am
mm
Dir  Spd
km/h
Gust
km/h
Spd
kts
Gust
kts
16/11:00pm 24.0 24.5 17.5 67 4.0 NE 11 15 6 8 1016.9 1016.8 0.0
16/10:30pm 24.2 24.4 17.7 67 4.1 NE 13 17 7 9 1017.1 1017.0 0.0
16/10:00pm 24.4 23.9 17.9 67 4.1 NE 17 22 9 12 1017.0 1016.9 0.0
16/09:30pm 24.6 24.3 18.3 68 4.0 NE 17 20 9 11 1016.8 1016.7 0.0
16/09:00pm 24.6 24.2 18.1 67 4.1 NE 17 20 9 11 1016.6 1016.5 0.0
16/08:30pm 24.9 24.6 17.4 63 4.7 NE 15 20 8 11 1016.3 1016.2 0.0
16/08:00pm 24.9 24.4 17.9 65 4.4 NE 17 22 9 12 1016.1 1016.0 0.0
16/07:30pm 24.9 24.3 17.6 64 4.6 NE 17 20 9 11 1015.9 1015.8 0.0
16/07:00pm 25.1 25.2 18.3 66 4.3 NE 15 20 8 11 1015.8 1015.7 0.0
16/06:30pm 25.1 24.7 18.8 68 4.0 NE 19 24 10 13 1015.1 1015.0 0.0
16/06:00pm 25.5 25.7 19.4 69 3.9 NE 17 24 9 13 1014.9 1014.8 0.0
16/05:30pm 25.5 25.2 19.2 68 4.0 NNE 19 24 10 13 1014.5 1014.4 0.0
16/05:00pm 25.5 25.0 18.7 66 4.3 NNE 19 22 10 12 1014.3 1014.2 0.0
16/04:30pm 26.1 25.6 19.2 65 4.4 NNE 20 24 11 13 1014.1 1014.0 0.0
16/04:00pm 26.7 26.6 19.6 65 4.6 NE 19 24 10 13 1014.2 1014.1 0.0
16/03:30pm 27.8 27.2 19.8 61 5.2 NNE 22 28 12 15 1014.3 1014.2 0.0
16/03:00pm 28.0 27.2 19.2 58 5.7 NE 22 28 12 15 1014.6 1014.5 0.0
16/02:30pm 27.5 26.3 18.5 58 5.7 NNE 22 26 12 14 1015.0 1014.9 0.0
16/02:00pm 27.8 27.0 19.3 60 5.5 NE 22 28 12 15 1015.1 1015.0 0.0
16/01:30pm 27.9 26.9 18.9 58 5.8 NE 22 30 12 16 1015.4 1015.3 0.0
16/01:00pm 27.8 26.8 19.6 61 5.3 NE 24 28 13 15 1015.6 1015.5 0.0
16/12:30pm 28.0 26.8 19.2 58 5.7 NE 24 32 13 17 1016.1 1016.0 0.0
16/12:00pm 28.0 27.2 20.0 61 5.2 NE 24 30 13 16 1016.3 1016.2 0.0
16/11:30am 27.7 26.9 20.0 63 5.0 NE 24 30 13 16 1016.6 1016.5 0.0
16/11:00am 27.9 27.4 19.9 61 5.2 NE 22 28 12 15 1016.9 1016.8 0.0
16/10:30am 27.8 26.9 19.8 61 5.2 NE 24 28 13 15 1017.0 1016.9 0.0
16/10:00am 27.9 27.5 20.2 63 5.0 NNE 22 28 12 15 1017.1 1017.0 0.0
16/09:30am 27.4 27.4 20.2 65 4.7 NE 20 26 11 14 1017.1 1017.0 0.0
16/09:00am 26.8 27.2 20.6 69 4.1 NNE 19 24 10 13 1017.0 1016.9 0.0
16/08:30am 26.4 26.4 19.8 67 4.3 NNE 19 24 10 13 1017.0 1016.9 0.0
16/08:00am 26.1 26.3 20.2 70 3.8 NNE 19 24 10 13 1017.0 1016.9 0.0
16/07:30am 25.8 26.5 19.7 69 3.9 NNE 15 20 8 11 1016.9 1016.8 0.0
16/07:00am 25.5 25.9 19.9 71 3.6 NNE 17 19 9 10 1016.6 1016.5 0.0
16/06:30am 25.3 26.2 20.1 73 3.4 NNE 15 19 8 10 1016.3 1016.2 0.0
16/06:00am 25.2 26.4 20.0 73 3.4 NNE 13 17 7 9 1015.9 1015.8 0.0
16/05:30am 24.2 25.5 20.1 78 2.7 NNE 13 20 7 11 1015.5 1015.4 0.0
16/05:00am 24.0 24.4 19.9 78 2.6 NNE 17 20 9 11 1015.0 1014.9 0.0
16/04:30am 24.1 25.1 20.2 79 2.5 NNE 15 19 8 10 1014.7 1014.6 0.0
16/04:00am 24.2 24.5 19.7 76 2.9 NNE 17 22 9 12 1014.6 1014.5 0.0
16/03:30am 24.0 24.5 20.1 79 2.5 NNE 17 20 9 11 1014.5 1014.4 0.0
16/03:00am 23.9 24.4 20.0 79 2.5 NNE 17 22 9 12 1014.5 1014.4 0.0
16/02:30am 24.2 24.7 20.1 78 2.7 NNE 17 20 9 11 1014.4 1014.3 0.0
16/02:00am 24.3 24.1 19.8 76 2.9 NNE 20 26 11 14 1014.4 1014.3 0.0
16/01:30am 24.3 24.4 20.0 77 2.8 NNE 19 24 10 13 1014.5 1014.4 0.0
16/01:00am 24.4 24.4 20.1 77 2.8 NNE 20 26 11 14 1014.5 1014.4 0.0
16/12:30am 24.7 25.6 20.8 79 2.6 NNE 17 22 9 12 1014.6 1014.5 0.0
16/12:00am 24.5 24.9 20.6 79 2.5 NNE 19 20 10 11 1014.7 1014.6 0.0
 
Date/Time
EST
Temp
°C
App
Temp
°C
Dew
Point
°C
Rel
Hum
%
Delta-T
°C
Wind Press
QNH
hPa
Press
MSL
hPa
Rain since
9am
mm
Dir  Spd
km/h
Gust
km/h
Spd
kts
Gust
kts
15/11:30pm 24.6 24.9 20.3 77 2.8 NNE 19 24 10 13 1014.8 1014.7 0.0
15/11:00pm 24.6 24.9 20.5 78 2.7 N 19 24 10 13 1015.1 1015.0 0.0
15/10:30pm 24.8 26.0 20.7 78 2.7 N 15 20 8 11 1015.2 1015.1 0.0
15/10:00pm 24.8 25.5 20.5 77 2.8 N 17 22 9 12 1015.2 1015.1 0.0
15/09:30pm 24.8 25.5 20.5 77 2.8 NNE 17 22 9 12 1015.0 1014.9 0.0
15/09:00pm 25.0 25.1 20.0 74 3.2 NNE 19 22 10 12 1014.9 1014.8 0.0
15/08:30pm 25.1 25.4 20.4 75 3.1 NNE 19 22 10 12 1014.6 1014.5 0.0
15/08:00pm 25.2 25.9 20.5 75 3.1 NNE 17 22 9 12 1014.5 1014.4 0.0
15/07:30pm 24.9 25.2 20.8 78 2.7 NNE 20 26 11 14 1014.1 1014.0 0.0
15/07:00pm 25.1 25.5 20.6 76 2.9 NNE 19 26 10 14 1013.6 1013.5 0.0
15/06:30pm 25.2 25.6 19.8 72 3.5 NNE 17 24 9 13 1013.3 1013.2 0.0
15/06:00pm 25.4 25.3 19.5 70 3.8 NNE 19 24 10 13 1012.9 1012.8 0.0
15/05:30pm 25.6 25.2 19.3 68 4.0 NNE 20 24 11 13 1012.5 1012.4 0.0
15/05:00pm 26.4 26.1 19.5 66 4.5 NNE 20 28 11 15 1012.1 1012.0 0.0
15/04:30pm 27.1 26.5 19.7 64 4.8 NNE 22 26 12 14 1012.0 1011.9 0.0
15/04:00pm 26.8 25.6 19.2 63 4.9 NNE 24 30 13 16 1011.8 1011.7 0.0
15/03:30pm 27.5 26.6 19.0 59 5.5 NNE 22 28 12 15 1011.8 1011.7 0.0
15/03:00pm 27.7 26.4 19.0 59 5.6 NNE 24 30 13 16 1011.9 1011.8 0.0
15/02:30pm 28.2 27.4 19.2 58 5.8 NNE 22 28 12 15 1011.9 1011.8 0.0
15/02:00pm 27.9 26.3 18.3 56 6.1 NNE 24 32 13 17 1012.1 1012.0 0.0
15/01:30pm 27.8 25.9 17.6 53 6.4 NNE 24 30 13 16 1012.4 1012.3 0.0
15/01:00pm 27.9 26.2 18.0 55 6.3 NNE 24 30 13 16 1012.6 1012.5 0.0
15/12:30pm 27.9 26.2 18.0 55 6.3 NNE 24 30 13 16 1012.9 1012.8 0.0
15/12:00pm 27.9 26.3 18.3 56 6.1 NNE 24 32 13 17 1012.9 1012.8 0.0
15/11:30am 27.5 25.7 17.9 55 6.1 NNE 24 28 13 15 1013.1 1013.0 0.0
15/11:00am 27.3 25.9 18.0 56 5.9 NNE 22 28 12 15 1013.5 1013.4 0.0
15/10:30am 27.6 26.5 18.6 58 5.8 NNE 22 28 12 15 1013.6 1013.5 0.0
15/10:00am 27.7 27.0 19.5 61 5.3 NNE 22 28 12 15 1013.7 1013.6 0.0
15/09:30am 26.6 25.5 18.7 62 5.0 NNE 22 30 12 16 1013.7 1013.6 0.0
15/09:00am 26.3 25.7 18.9 63 4.7 N 20 26 11 14 1013.7 1013.6 0.0
15/08:30am 26.3 26.1 19.4 66 4.4 N 19 26 10 14 1013.8 1013.7 0.0
15/08:00am 25.7 25.2 18.6 65 4.5 N 19 24 10 13 1013.8 1013.7 0.0
15/07:30am 25.4 25.3 18.8 67 4.2 N 17 22 9 12 1013.8 1013.7 0.0
15/07:00am 24.9 25.7 19.1 70 3.7 NW 13 19 7 10 1013.8 1013.7 0.0
15/06:30am 23.9 25.4 19.0 74 3.1 NW 9 15 5 8 1013.4 1013.3 0.0
15/06:00am 20.9 24.3 19.4 91 1.0 CALM 0 0 0 0 1013.3 1013.2 0.0
15/05:30am 19.7 21.9 18.4 92 0.8 WSW 4 7 2 4 1012.9 1012.8 0.0
15/05:00am 18.8 21.3 17.3 91 0.9 CALM 0 0 0 0 1012.5 1012.4 0.0
15/04:30am 18.9 20.2 17.0 89 1.1 W 6 7 3 4 1012.1 1012.0 0.0
15/04:00am 19.6 21.5 17.6 88 1.2 WNW 4 6 2 3 1011.8 1011.7 0.0
15/03:30am 20.2 21.6 17.8 86 1.5 WNW 7 9 4 5 1011.8 1011.7 0.0
15/03:00am 20.2 21.1 17.6 85 1.6 WNW 9 11 5 6 1011.9 1011.8 0.0
15/02:30am 20.2 21.1 17.6 85 1.6 WNW 9 11 5 6 1011.9 1011.8 0.0
15/02:00am 20.5 21.5 17.7 84 1.7 WNW 9 11 5 6 1011.8 1011.7 0.0
15/01:30am 20.8 21.7 17.6 82 2.0 WNW 9 11 5 6 1011.9 1011.8 0.0
15/01:00am 21.3 22.3 17.7 80 2.2 NW 9 13 5 7 1012.1 1012.0 0.0
15/12:30am 22.4 23.6 18.2 77 2.6 WNW 9 11 5 6 1012.3 1012.2 0.0
15/12:00am 22.5 24.1 18.3 77 2.6 WNW 7 9 4 5 1012.5 1012.4 0.0
 
Date/Time
EST
Temp
°C
App
Temp
°C
Dew
Point
°C
Rel
Hum
%
Delta-T
°C
Wind Press
QNH
hPa
Press
MSL
hPa
Rain since
9am
mm
Dir  Spd
km/h
Gust
km/h
Spd
kts
Gust
kts
14/11:30pm 22.8 24.0 18.3 76 2.8 W 9 13 5 7 1013.0 1012.9 0.0
14/11:00pm 24.1 23.6 18.7 72 3.4 N 19 22 10 12 1013.1 1013.0 0.0
14/10:30pm 23.9 23.8 18.8 73 3.2 N 17 22 9 12 1013.2 1013.1 0.0
14/10:00pm 23.6 23.2 18.0 71 3.5 N 17 20 9 11 1013.3 1013.2 0.0
14/09:30pm 23.7 22.9 17.9 70 3.6 N 19 22 10 12 1013.1 1013.0 0.0
14/09:00pm 23.8 23.2 17.5 68 3.9 N 17 22 9 12 1013.0 1012.9 0.0
14/08:30pm 24.0 23.4 17.5 67 4.0 N 17 20 9 11 1012.7 1012.6 0.0
14/08:00pm 24.1 23.4 17.4 66 4.2 N 17 20 9 11 1012.8 1012.7 0.0
14/07:30pm 24.2 23.4 17.2 65 4.3 N 17 20 9 11 1012.6 1012.5 0.0
14/07:00pm 24.2 23.7 17.7 67 4.1 NNE 17 24 9 13 1012.2 1012.1 0.0
14/06:30pm 24.4 23.4 17.9 67 4.1 NNE 20 26 11 14 1011.7 1011.6 0.0
14/06:00pm 24.8 23.8 18.0 66 4.3 NNE 20 24 11 13 1011.8 1011.7 0.0
14/05:30pm 25.3 24.5 18.0 64 4.6 NNE 19 24 10 13 1011.7 1011.6 0.0
14/05:00pm 25.9 25.1 18.1 62 4.9 NNE 19 26 10 14 1011.4 1011.3 0.0
14/04:30pm 26.1 24.8 17.2 58 5.5 NNE 20 26 11 14 1011.3 1011.2 0.0
14/04:00pm 26.4 25.4 17.5 58 5.6 NNE 19 24 10 13 1011.2 1011.1 0.0
14/03:30pm 26.8 25.9 18.1 59 5.5 NNE 20 24 11 13 1011.3 1011.2 0.0
14/03:00pm 26.9 25.8 17.7 57 5.8 NNE 20 24 11 13 1011.4 1011.3 0.0
14/02:30pm 26.9 25.7 17.4 56 6.0 NNE 20 26 11 14 1011.6 1011.5 0.0
14/02:00pm 27.5 26.7 18.5 58 5.8 NNE 20 26 11 14 1011.8 1011.7 0.0
14/01:30pm 26.8 25.3 17.6 57 5.8 NE 22 28 12 15 1011.7 1011.6 0.0
14/01:00pm 26.5 25.3 17.6 58 5.6 NE 20 26 11 14 1012.0 1011.9 0.0
14/12:30pm 26.8 25.9 18.1 59 5.5 NE 20 26 11 14 1012.2 1012.1 0.0
14/12:00pm 26.7 26.0 18.3 60 5.3 NE 19 24 10 13 1012.5 1012.4 0.0
14/11:30am 27.8 28.1 19.6 61 5.3 NNE 17 24 9 13 1012.9 1012.8 0.0
14/11:00am 26.1 25.9 17.7 60 5.3 NNE 15 22 8 12 1013.3 1013.2 0.0
14/10:30am 26.0 25.6 17.1 58 5.5 NNE 15 20 8 11 1013.3 1013.2 0.0
14/10:00am 25.9 25.9 17.3 59 5.4 NE 13 20 7 11 1013.4 1013.3 0.0
14/09:30am 26.2 27.1 17.6 59 5.4 N 9 17 5 9 1013.6 1013.5 0.0
14/09:00am 25.4 26.0 16.8 59 5.3 N 9 15 5 8 1013.7 1013.6 0.0
14/08:30am 25.9 27.0 17.0 58 5.5 NNE 7 13 4 7 1013.9 1013.8 0.0
14/08:00am 25.1 25.4 16.0 57 5.5 N 9 13 5 7 1013.9 1013.8 0.0
14/07:30am 24.3 25.0 16.0 60 5.0 WSW 7 11 4 6 1013.9 1013.8 0.0
14/07:00am 23.5 24.5 16.3 64 4.4 SW 6 9 3 5 1014.1 1014.0 0.0
14/06:30am 21.8 22.9 17.0 74 2.9 SW 7 9 4 5 1014.0 1013.9 0.0
14/06:00am 20.1 22.5 17.1 83 1.8 CALM 0 0 0 0 1013.8 1013.7 0.0
14/05:30am 18.9 20.8 17.6 92 0.8 SSW 4 6 2 3 1013.7 1013.6 0.0
14/05:00am 17.2 18.1 16.2 94 0.6 S 6 7 3 4 1013.6 1013.5 0.0
14/04:30am 17.3 19.4 16.3 94 0.6 CALM 0 4 0 2 1013.3 1013.2 0.0
14/04:00am 17.6 19.9 16.8 95 0.5 CALM 0 0 0 0 1013.2 1013.1 0.0
14/03:30am 17.5 19.3 16.5 94 0.6 SW 2 6 1 3 1013.1 1013.0 0.0
14/03:00am 17.5 18.9 16.5 94 0.6 SW 4 7 2 4 1013.2 1013.1 0.0
14/02:30am 17.9 20.2 16.8 93 0.7 CALM 0 0 0 0 1013.2 1013.1 0.0
14/02:00am 18.0 19.1 16.7 92 0.8 WSW 6 9 3 5 1013.3 1013.2 0.0
14/01:30am 18.2 19.4 16.9 92 0.8 WSW 6 7 3 4 1013.5 1013.4 0.0
14/01:00am 18.8 20.2 17.3 91 0.9 SW 6 9 3 5 1013.8 1013.7 0.0
14/12:30am 19.0 20.5 17.5 91 0.9 SW 6 9 3 5 1014.4 1014.3 0.0
14/12:00am 19.3 20.2 17.6 90 1.0 WSW 9 11 5 6 1014.7 1014.6 0.0
 
Date/Time
EST
Temp
°C
App
Temp
°C
Dew
Point
°C
Rel
Hum
%
Delta-T
°C
Wind Press
QNH
hPa
Press
MSL
hPa
Rain since
9am
mm
Dir  Spd
km/h
Gust
km/h
Spd
kts
Gust
kts
13/11:30pm 19.7 20.3 17.8 89 1.2 WSW 11 13 6 7 1015.0 1014.9 0.0

Latest Capital City Observations: Canberra | Sydney | Melbourne | Brisbane | Adelaide | Perth | Hobart | Darwin

Other Formats:

Comma delimited format used in spreadsheet applications
http://www.bom.gov.au/fwo/IDQ60901/IDQ60901.94592.axf

JavaScript Object Notation format (JSON) in row-major order
http://www.bom.gov.au/fwo/IDQ60901/IDQ60901.94592.json